メインページ
METAR-TAF:

METAR-TAF

空港 :

カンザスシティ, ミズーリ州, アメリカ合衆国

カンザスシティ国際空港

緯度: 39-17-50N, 経度: 094-43-50W, 海抜: 312m

現時点の気象観測

当レポートは46分前の09:53(UTC)に作成
西/北西の風 6kt
気温 -1°C
湿度 80%
気圧 1024 hPa
視程: 16.1km
晴天

METAR: KMCI 190953Z 30006KT 10SM CLR M01/M04 A3024 RMK AO2 SLP243 T10111039

時間: 04:39 (10:39 UTC)

予報

当レポートは5時間19分前の05:20(UTC)に作成
予報は19日の 06時(UTC)から 20日の 06時(UTC)まで有効
北西の風 7kt
視程: 10km
晴天
19日の 1500時(UTC)から
西の風 6kt
視程: 10km
晴天

TAF: KMCI 190520Z 1906/2006 32007KT P6SM SKC FM191500 26006KT P6SM SKC

4,000以上の空港の気象観測と天気予報(METAR報とTAF報)

利用可能な観測所は地図上に黄色い丸と赤い丸で示す。

丸の上にカーソルを重ねると観測所名を参照できる。

次にクリックすると気象観測と天気予報を参照できる。

マップの切り替え:黒色「×」印の緑ボタンをクリックして拡大、「-」印の緑ボタンをクリックして縮小、緑色の三角印をクリックして隣りの地図に切り替え


METAR-TAF: